createdAt,value
2023-02-27T00:00:23.736Z,99776.97
2023-02-27T00:03:08.272Z,99773.19
2023-02-27T00:05:53.721Z,99774.66
2023-02-27T00:08:40.315Z,99778.31
2023-02-27T00:11:28.365Z,99779.59
2023-02-27T00:14:15.824Z,99775.66
2023-02-27T00:17:02.296Z,99773.31
2023-02-27T00:19:42.678Z,99777.47
2023-02-27T00:22:29.279Z,99776.75
2023-02-27T00:25:25.708Z,99781.97
2023-02-27T00:28:14.077Z,99793.81
2023-02-27T00:30:53.153Z,99800.75
2023-02-27T00:33:42.083Z,99805.44
2023-02-27T00:36:25.707Z,99806.06
2023-02-27T00:39:15.368Z,99806.34
2023-02-27T00:41:59.123Z,99815.84
2023-02-27T00:44:42.076Z,99810.47
2023-02-27T00:47:20.137Z,99813.44
2023-02-27T00:50:03.061Z,99809.97
2023-02-27T00:52:48.315Z,99809.84
2023-02-27T00:55:34.092Z,99817.41
2023-02-27T00:58:17.017Z,99824.38
2023-02-27T01:01:05.901Z,99822.25
2023-02-27T01:03:49.080Z,99823.03
2023-02-27T01:06:31.949Z,99825.56
2023-02-27T01:09:11.875Z,99833.50
2023-02-27T01:12:01.752Z,99835.34
2023-02-27T01:14:48.505Z,99837.28
2023-02-27T01:17:40.462Z,99840.47
2023-02-27T01:20:19.886Z,99849.41
2023-02-27T01:23:06.850Z,99854.28
2023-02-27T01:25:49.099Z,99855.53
2023-02-27T01:28:45.974Z,99855.09
2023-02-27T01:31:29.710Z,99852.31
2023-02-27T01:34:04.963Z,99858.72
2023-02-27T01:36:45.248Z,99863.34
2023-02-27T01:39:32.961Z,99858.03
2023-02-27T01:42:39.543Z,99867.22
2023-02-27T01:45:30.994Z,99866.13
2023-02-27T01:48:45.414Z,99874.22
2023-02-27T01:51:36.593Z,99875.91
2023-02-27T01:54:21.384Z,99876.84
2023-02-27T01:57:19.247Z,99869.75
2023-02-27T02:00:06.515Z,99872.38
2023-02-27T02:03:06.300Z,99876.03
2023-02-27T02:06:03.523Z,99861.50
2023-02-27T02:09:03.306Z,99868.94
2023-02-27T02:11:52.425Z,99869.63
2023-02-27T02:14:35.289Z,99869.19
2023-02-27T02:17:40.317Z,99867.94
2023-02-27T02:21:15.276Z,99873.53
2023-02-27T02:24:36.991Z,99868.53
2023-02-27T02:27:30.779Z,99873.97
2023-02-27T02:30:18.933Z,99878.00
2023-02-27T02:33:33.715Z,99894.19
2023-02-27T02:36:34.621Z,99890.00
2023-02-27T02:39:45.018Z,99881.66
2023-02-27T02:42:34.173Z,99892.91
2023-02-27T02:45:51.008Z,99895.03
2023-02-27T02:48:35.648Z,99897.09
2023-02-27T02:51:33.526Z,99902.28
2023-02-27T02:54:31.448Z,99912.31
2023-02-27T02:57:32.547Z,99918.03
2023-02-27T03:00:34.483Z,99923.75
2023-02-27T03:03:23.103Z,99919.03
2023-02-27T03:06:35.194Z,99920.84
2023-02-27T03:09:49.652Z,99930.34
2023-02-27T03:12:45.085Z,99934.22
2023-02-27T03:15:55.560Z,99924.31
2023-02-27T03:18:41.309Z,99928.50
2023-02-27T03:21:52.502Z,99931.16
2023-02-27T03:24:48.645Z,99930.47
2023-02-27T03:27:42.568Z,99933.53
2023-02-27T03:30:48.157Z,99941.06
2023-02-27T03:33:28.624Z,99938.53
2023-02-27T03:36:37.803Z,99944.25
2023-02-27T03:40:01.530Z,99941.59
2023-02-27T03:43:06.149Z,99948.72
2023-02-27T03:46:12.864Z,99954.31
2023-02-27T03:48:58.886Z,99954.03
2023-02-27T03:51:47.357Z,99955.03
2023-02-27T03:54:46.090Z,99965.59
2023-02-27T03:57:29.355Z,99957.94
2023-02-27T04:00:37.726Z,99954.44
2023-02-27T04:03:24.326Z,99957.22
2023-02-27T04:06:29.393Z,99965.47
2023-02-27T04:09:43.252Z,99967.59
2023-02-27T04:13:19.532Z,99963.66
2023-02-27T04:16:51.601Z,99972.03
2023-02-27T04:19:45.313Z,99974.56
2023-02-27T04:22:39.148Z,99970.91
2023-02-27T04:25:22.515Z,99964.78
2023-02-27T04:28:40.522Z,99972.72
2023-02-27T04:31:51.527Z,99977.09
2023-02-27T04:34:50.631Z,99973.56
2023-02-27T04:37:58.257Z,99976.94
2023-02-27T04:41:03.341Z,99982.09
2023-02-27T04:43:49.505Z,99986.81
2023-02-27T04:46:41.500Z,99989.91
2023-02-27T04:49:41.684Z,99993.25
2023-02-27T04:52:33.147Z,99993.00
2023-02-27T04:55:30.000Z,100000.09
2023-02-27T04:58:29.255Z,99997.44
2023-02-27T05:01:22.522Z,99997.59
2023-02-27T05:04:20.500Z,100003.91
2023-02-27T05:07:10.156Z,100005.69
2023-02-27T05:10:20.734Z,100005.56
2023-02-27T05:13:16.498Z,100006.69
2023-02-27T05:16:19.519Z,100014.34
2023-02-27T05:19:04.729Z,100019.25
2023-02-27T05:22:03.303Z,100026.63
2023-02-27T05:25:30.764Z,100036.28
2023-02-27T05:28:28.398Z,100045.06
2023-02-27T05:31:24.537Z,100051.78
2023-02-27T05:34:37.551Z,100054.56
2023-02-27T05:37:42.169Z,100056.78
2023-02-27T05:40:27.441Z,100059.31
2023-02-27T05:43:21.477Z,100060.00
2023-02-27T05:46:13.687Z,100071.75
2023-02-27T05:49:17.626Z,100067.25
2023-02-27T05:52:05.614Z,100066.13
2023-02-27T05:55:00.875Z,100080.94
2023-02-27T05:58:02.620Z,100085.00
2023-02-27T06:00:52.745Z,100089.75
2023-02-27T06:03:43.574Z,100094.78
2023-02-27T06:06:26.787Z,100092.28
2023-02-27T06:09:13.078Z,100096.31
2023-02-27T06:12:09.053Z,100101.63
2023-02-27T06:14:58.498Z,100106.09
2023-02-27T06:17:43.342Z,100098.69
2023-02-27T06:20:50.136Z,100106.56
2023-02-27T06:23:38.489Z,100113.00
2023-02-27T06:26:28.633Z,100113.13
2023-02-27T06:29:18.494Z,100120.50
2023-02-27T06:32:18.555Z,100118.81
2023-02-27T06:35:02.474Z,100125.66
2023-02-27T06:37:52.672Z,100125.00
2023-02-27T06:40:35.490Z,100124.53
2023-02-27T06:43:24.538Z,100129.00
2023-02-27T06:46:18.480Z,100132.91
2023-02-27T06:49:00.492Z,100152.63
2023-02-27T06:51:51.808Z,100155.69
2023-02-27T06:54:33.169Z,100162.41
2023-02-27T06:57:08.566Z,100166.72
2023-02-27T06:59:57.849Z,100166.13
2023-02-27T07:02:48.824Z,100176.19
2023-02-27T07:05:40.724Z,100167.63
2023-02-27T07:08:23.486Z,100173.47
2023-02-27T07:11:05.544Z,100174.72
2023-02-27T07:13:54.999Z,100183.91
2023-02-27T07:16:51.007Z,100188.66
2023-02-27T07:19:39.516Z,100188.91
2023-02-27T07:22:17.649Z,100193.88
2023-02-27T07:24:58.703Z,100197.94
2023-02-27T07:27:48.561Z,100186.47
2023-02-27T07:30:36.535Z,100192.38
2023-02-27T07:36:12.570Z,100204.38
2023-02-27T07:39:08.343Z,100202.78
2023-02-27T07:41:54.869Z,100205.53
2023-02-27T07:44:43.287Z,100213.53
2023-02-27T07:47:30.341Z,100213.72
2023-02-27T07:50:14.251Z,100205.03
2023-02-27T07:53:08.533Z,100213.41
2023-02-27T07:55:48.591Z,100216.03
2023-02-27T07:58:34.897Z,100213.38
2023-02-27T08:01:27.829Z,100211.25
2023-02-27T08:04:06.175Z,100217.19
2023-02-27T08:06:47.269Z,100220.66
2023-02-27T08:09:36.587Z,100220.84
2023-02-27T08:12:12.351Z,100217.31
2023-02-27T08:15:01.482Z,100229.91
2023-02-27T08:17:49.002Z,100230.31
2023-02-27T08:20:34.576Z,100230.72
2023-02-27T08:23:18.411Z,100222.34
2023-02-27T08:26:04.493Z,100232.28
2023-02-27T08:28:51.647Z,100234.88
2023-02-27T08:31:31.946Z,100234.78
2023-02-27T08:34:18.431Z,100234.50
2023-02-27T08:37:03.902Z,100246.91
2023-02-27T08:39:47.060Z,100237.25
2023-02-27T08:42:32.721Z,100243.28
2023-02-27T08:45:18.091Z,100248.41
2023-02-27T08:48:12.517Z,100241.13
2023-02-27T08:50:48.483Z,100249.78
2023-02-27T08:53:30.945Z,100256.50
2023-02-27T08:56:22.932Z,100263.59
2023-02-27T08:59:06.123Z,100268.72
2023-02-27T09:01:46.783Z,100284.28
2023-02-27T09:04:30.684Z,100288.72
2023-02-27T09:07:02.600Z,100285.22
2023-02-27T09:09:40.878Z,100300.56
2023-02-27T09:12:18.838Z,100305.44
2023-02-27T09:15:15.883Z,100303.00
2023-02-27T09:18:05.637Z,100306.03
2023-02-27T09:20:56.476Z,100311.06
2023-02-27T09:23:39.897Z,100312.75
2023-02-27T09:26:19.512Z,100314.88
2023-02-27T09:28:57.493Z,100311.50
2023-02-27T09:31:35.623Z,100323.41
2023-02-27T09:34:22.037Z,100313.44
2023-02-27T09:37:12.336Z,100324.00
2023-02-27T09:39:56.963Z,100321.13
2023-02-27T09:42:46.554Z,100325.69
2023-02-27T09:45:39.464Z,100319.13
2023-02-27T09:49:05.458Z,100325.16
2023-02-27T09:51:40.645Z,100327.88
2023-02-27T09:54:23.805Z,100317.84
2023-02-27T09:57:17.441Z,100319.16
2023-02-27T10:00:18.464Z,100319.31
2023-02-27T10:03:13.808Z,100311.78
2023-02-27T10:06:18.431Z,100311.63
2023-02-27T10:09:14.378Z,100310.47
2023-02-27T10:12:21.953Z,100302.06
2023-02-27T10:15:07.954Z,100314.44
2023-02-27T10:18:01.339Z,100313.94
2023-02-27T10:21:03.136Z,100313.03
2023-02-27T10:23:53.599Z,100305.31
2023-02-27T10:26:36.023Z,100309.34
2023-02-27T10:29:56.264Z,100302.69
2023-02-27T10:32:44.516Z,100309.44
2023-02-27T10:35:44.560Z,100303.09
2023-02-27T10:38:37.341Z,100309.44
2023-02-27T10:41:17.379Z,100307.94
2023-02-27T10:44:01.473Z,100309.22
2023-02-27T10:46:41.869Z,100305.19
2023-02-27T10:49:29.994Z,100302.66
2023-02-27T10:52:22.557Z,100300.47
2023-02-27T10:55:49.820Z,100302.50
2023-02-27T10:58:35.091Z,100302.94
2023-02-27T11:01:29.877Z,100307.41
2023-02-27T11:04:08.782Z,100306.94
2023-02-27T11:07:00.600Z,100312.22
2023-02-27T11:09:44.913Z,100307.25
2023-02-27T11:12:43.568Z,100310.47
2023-02-27T11:15:42.419Z,100313.53
2023-02-27T11:18:40.283Z,100306.88
2023-02-27T11:21:46.390Z,100303.97
2023-02-27T11:24:46.104Z,100312.53
2023-02-27T11:27:26.656Z,100312.53
2023-02-27T11:30:22.669Z,100318.69
2023-02-27T11:33:06.442Z,100312.34
2023-02-27T11:36:02.569Z,100307.25
2023-02-27T11:38:46.132Z,100317.94
2023-02-27T11:41:48.592Z,100319.88
2023-02-27T11:44:50.736Z,100321.22
2023-02-27T11:48:01.395Z,100313.06
2023-02-27T11:51:40.255Z,100306.75
2023-02-27T11:54:41.002Z,100318.25
2023-02-27T11:57:40.438Z,100322.53
2023-02-27T12:00:49.246Z,100319.09
2023-02-27T12:04:24.505Z,100324.03
2023-02-27T12:07:18.158Z,100319.22
2023-02-27T12:10:02.609Z,100315.25
2023-02-27T12:13:01.864Z,100321.97
2023-02-27T12:16:01.568Z,100317.28
2023-02-27T12:18:51.946Z,100319.81
2023-02-27T12:21:39.837Z,100321.56
2023-02-27T12:24:54.786Z,100319.41
2023-02-27T12:27:51.966Z,100323.97
2023-02-27T12:31:01.572Z,100334.16
2023-02-27T12:34:26.343Z,100332.03
2023-02-27T12:37:39.046Z,100328.66
2023-02-27T12:40:27.430Z,100333.50
2023-02-27T12:43:25.430Z,100335.34
2023-02-27T12:46:31.404Z,100334.78
2023-02-27T12:49:36.960Z,100340.53
2023-02-27T12:52:41.156Z,100345.84
2023-02-27T12:55:44.088Z,100348.34
2023-02-27T12:59:07.504Z,100345.59
2023-02-27T13:02:17.054Z,100344.22
2023-02-27T13:05:20.431Z,100348.78
2023-02-27T13:08:30.421Z,100349.78
2023-02-27T13:11:33.456Z,100353.31
2023-02-27T13:14:35.843Z,100358.88
2023-02-27T13:17:44.626Z,100357.25
2023-02-27T13:21:06.198Z,100351.75
2023-02-27T13:24:01.388Z,100353.09
2023-02-27T13:26:58.177Z,100352.91
2023-02-27T13:30:21.280Z,100349.63
2023-02-27T13:33:17.846Z,100345.69
2023-02-27T13:36:39.140Z,100348.19
2023-02-27T13:40:15.077Z,100345.31
2023-02-27T13:43:02.156Z,100345.06
2023-02-27T13:45:51.673Z,100351.72
2023-02-27T13:48:57.865Z,100360.06
2023-02-27T13:51:47.773Z,100364.88
2023-02-27T13:54:33.528Z,100359.34
2023-02-27T13:57:31.444Z,100358.16
2023-02-27T14:00:32.459Z,100357.47
2023-02-27T14:06:34.973Z,100358.56
2023-02-27T14:09:22.590Z,100354.66
2023-02-27T14:12:33.405Z,100354.69
2023-02-27T14:16:00.461Z,100359.69
2023-02-27T14:18:55.404Z,100353.25
2023-02-27T14:22:22.270Z,100359.06
2023-02-27T14:25:32.430Z,100357.41
2023-02-27T14:28:38.068Z,100359.84
2023-02-27T14:31:41.366Z,100364.13
2023-02-27T14:34:26.092Z,100363.50
2023-02-27T14:37:21.421Z,100365.78
2023-02-27T14:40:21.208Z,100370.25
2023-02-27T14:43:22.634Z,100368.16
2023-02-27T14:46:09.603Z,100368.91
2023-02-27T14:49:13.126Z,100365.34
2023-02-27T14:52:05.784Z,100371.75
2023-02-27T14:54:49.213Z,100380.41
2023-02-27T14:57:32.556Z,100373.78
2023-02-27T15:00:33.166Z,100372.38
2023-02-27T15:04:02.380Z,100376.88
2023-02-27T15:07:05.020Z,100381.81
2023-02-27T15:09:52.598Z,100382.41
2023-02-27T15:12:48.521Z,100392.06
2023-02-27T15:15:41.723Z,100391.88
2023-02-27T15:18:29.363Z,100394.97
2023-02-27T15:21:08.955Z,100402.69
2023-02-27T15:24:09.527Z,100402.44
2023-02-27T15:26:48.937Z,100408.00
2023-02-27T15:29:47.081Z,100412.16
2023-02-27T15:32:44.162Z,100430.72
2023-02-27T15:35:37.654Z,100426.56
2023-02-27T15:38:38.496Z,100430.31
2023-02-27T15:41:21.458Z,100440.97
2023-02-27T15:44:11.198Z,100444.38
2023-02-27T15:46:50.450Z,100441.16
2023-02-27T15:49:35.420Z,100445.78
2023-02-27T15:52:36.073Z,100451.13
2023-02-27T15:55:18.471Z,100452.97
2023-02-27T15:58:22.565Z,100459.41
2023-02-27T16:01:27.693Z,100455.06
2023-02-27T16:04:25.515Z,100459.09
2023-02-27T16:07:30.088Z,100457.44
2023-02-27T16:10:26.228Z,100472.94
2023-02-27T16:13:21.616Z,100466.44
2023-02-27T16:16:41.663Z,100484.78
2023-02-27T16:20:02.537Z,100481.97
2023-02-27T16:23:31.594Z,100486.13
2023-02-27T16:26:32.686Z,100492.03
2023-02-27T16:29:41.090Z,100495.69
2023-02-27T16:32:50.666Z,100499.13
2023-02-27T16:35:54.676Z,100512.34
2023-02-27T16:38:32.430Z,100505.94
2023-02-27T16:41:22.973Z,100507.97
2023-02-27T16:44:12.085Z,100512.81
2023-02-27T16:46:59.366Z,100527.44
2023-02-27T16:49:52.394Z,100522.38
2023-02-27T16:53:05.209Z,100535.53
2023-02-27T16:55:55.837Z,100546.59
2023-02-27T16:58:49.209Z,100543.56
2023-02-27T17:01:39.887Z,100540.75
2023-02-27T17:04:30.629Z,100557.28
2023-02-27T17:07:18.711Z,100556.69
2023-02-27T17:10:08.572Z,100570.38
2023-02-27T17:12:58.514Z,100565.13
2023-02-27T17:15:45.516Z,100568.84
2023-02-27T17:18:40.357Z,100578.44
2023-02-27T17:21:38.471Z,100576.34
2023-02-27T17:24:17.018Z,100578.16
2023-02-27T17:27:22.008Z,100578.69
2023-02-27T17:30:07.208Z,100576.78
2023-02-27T17:32:59.918Z,100583.69
2023-02-27T17:35:52.591Z,100587.38
2023-02-27T17:41:55.554Z,100585.03
2023-02-27T17:44:51.247Z,100590.34
2023-02-27T17:47:53.598Z,100597.69
2023-02-27T17:50:38.795Z,100595.53
2023-02-27T17:53:23.514Z,100604.97
2023-02-27T17:56:07.691Z,100612.72
2023-02-27T17:58:54.376Z,100619.88
2023-02-27T18:02:08.458Z,100629.72
2023-02-27T18:05:01.999Z,100623.56
2023-02-27T18:07:56.829Z,100627.06
2023-02-27T18:10:43.559Z,100639.47
2023-02-27T18:13:35.510Z,100635.44
2023-02-27T18:19:31.353Z,100645.34
2023-02-27T18:22:28.599Z,100648.06
2023-02-27T18:25:25.120Z,100655.22
2023-02-27T18:28:04.432Z,100656.97
2023-02-27T18:30:58.900Z,100656.53
2023-02-27T18:33:53.417Z,100671.63
2023-02-27T18:36:42.271Z,100673.50
2023-02-27T18:39:36.867Z,100671.16
2023-02-27T18:42:59.509Z,100671.34
2023-02-27T18:45:48.426Z,100682.94
2023-02-27T18:48:40.149Z,100677.63
2023-02-27T18:51:31.787Z,100675.97
2023-02-27T18:54:19.399Z,100676.53
2023-02-27T18:57:11.512Z,100664.00
2023-02-27T19:00:04.643Z,100668.63
2023-02-27T19:02:54.791Z,100668.63
2023-02-27T19:08:46.636Z,100669.72
2023-02-27T19:11:36.712Z,100677.25
2023-02-27T19:14:16.402Z,100675.88
2023-02-27T19:17:10.600Z,100683.38
2023-02-27T19:19:57.336Z,100673.97
2023-02-27T19:22:45.591Z,100684.13
2023-02-27T19:25:53.227Z,100692.06
2023-02-27T19:28:32.632Z,100695.69
2023-02-27T19:31:15.575Z,100695.06
2023-02-27T19:34:05.473Z,100700.16
2023-02-27T19:36:49.149Z,100713.69
2023-02-27T19:39:42.357Z,100718.94
2023-02-27T19:42:23.215Z,100729.56
2023-02-27T19:45:09.805Z,100735.50
2023-02-27T19:48:02.560Z,100740.69
2023-02-27T19:50:49.862Z,100742.13
2023-02-27T19:53:33.907Z,100739.72
2023-02-27T19:56:25.099Z,100734.63
2023-02-27T19:59:17.510Z,100730.28
2023-02-27T20:02:05.349Z,100730.44
2023-02-27T20:04:46.018Z,100724.03
2023-02-27T20:07:35.461Z,100732.84
2023-02-27T20:10:18.690Z,100734.78
2023-02-27T20:13:08.000Z,100724.88
2023-02-27T20:16:03.294Z,100736.91
2023-02-27T20:18:54.977Z,100733.06
2023-02-27T20:21:48.814Z,100728.22
2023-02-27T20:24:31.958Z,100729.09
2023-02-27T20:27:19.423Z,100739.44
2023-02-27T20:30:03.476Z,100760.09
2023-02-27T20:32:52.854Z,100774.66
2023-02-27T20:35:37.987Z,100775.41
2023-02-27T20:38:32.471Z,100780.72
2023-02-27T20:41:29.377Z,100780.22
2023-02-27T20:44:15.996Z,100784.59
2023-02-27T20:46:54.858Z,100788.34
2023-02-27T20:49:36.466Z,100783.13
2023-02-27T20:52:29.208Z,100788.09
2023-02-27T20:55:23.562Z,100800.84
2023-02-27T20:58:10.391Z,100794.34
2023-02-27T21:01:00.130Z,100793.63
2023-02-27T21:03:50.972Z,100797.97
2023-02-27T21:06:31.472Z,100816.03
2023-02-27T21:09:12.975Z,100816.19
2023-02-27T21:11:56.205Z,100818.31
2023-02-27T21:14:32.619Z,100821.03
2023-02-27T21:17:10.815Z,100810.75
2023-02-27T21:20:00.039Z,100815.97
2023-02-27T21:22:35.739Z,100823.25
2023-02-27T21:25:25.000Z,100822.63
2023-02-27T21:28:14.277Z,100838.47
2023-02-27T21:30:59.509Z,100842.75
2023-02-27T21:33:41.001Z,100836.84
2023-02-27T21:36:49.508Z,100842.03
2023-02-27T21:39:29.348Z,100833.19
2023-02-27T21:42:21.039Z,100835.84
2023-02-27T21:45:10.831Z,100844.72
2023-02-27T21:47:55.820Z,100848.66
2023-02-27T21:50:42.299Z,100845.41
2023-02-27T21:53:37.151Z,100843.63
2023-02-27T21:56:27.778Z,100832.84
2023-02-27T21:59:12.314Z,100836.84
2023-02-27T22:01:57.704Z,100824.97
2023-02-27T22:04:44.064Z,100825.38
2023-02-27T22:07:32.526Z,100822.97
2023-02-27T22:10:11.361Z,100826.69
2023-02-27T22:12:51.494Z,100828.63
2023-02-27T22:15:35.786Z,100818.50
2023-02-27T22:18:26.655Z,100811.94
2023-02-27T22:21:16.137Z,100818.38
2023-02-27T22:24:00.961Z,100826.56
2023-02-27T22:26:41.669Z,100814.16
2023-02-27T22:29:17.139Z,100822.53
2023-02-27T22:32:05.962Z,100817.88
2023-02-27T22:34:54.811Z,100819.66
2023-02-27T22:37:39.814Z,100812.78
2023-02-27T22:40:27.283Z,100815.31
2023-02-27T22:43:15.824Z,100819.66
2023-02-27T22:45:56.481Z,100821.91
2023-02-27T22:48:38.476Z,100817.88
2023-02-27T22:54:26.794Z,100819.78
2023-02-27T22:57:10.851Z,100818.94
2023-02-27T22:59:55.502Z,100807.41
2023-02-27T23:02:45.113Z,100809.84
2023-02-27T23:05:31.880Z,100809.44
2023-02-27T23:08:13.500Z,100817.25
2023-02-27T23:10:59.476Z,100815.00
2023-02-27T23:13:41.862Z,100814.69
2023-02-27T23:16:25.233Z,100828.22
2023-02-27T23:19:06.639Z,100821.06
2023-02-27T23:21:47.795Z,100822.53
2023-02-27T23:24:32.479Z,100831.38
2023-02-27T23:27:25.432Z,100827.06
2023-02-27T23:30:03.417Z,100832.97
2023-02-27T23:32:50.410Z,100843.25
2023-02-27T23:35:27.141Z,100838.50
2023-02-27T23:38:10.428Z,100844.41
2023-02-27T23:40:59.892Z,100846.22
2023-02-27T23:43:51.303Z,100861.53
2023-02-27T23:46:35.325Z,100843.88
2023-02-27T23:49:21.488Z,100859.22
2023-02-27T23:52:00.443Z,100864.63
2023-02-27T23:54:43.478Z,100857.94
2023-02-27T23:57:22.440Z,100870.53
